sensor_id;sensor_type;location;lat;lon;timestamp;P1;P2;P0
63662;PMS5003;49815;51.618;0.336;2023-02-11T00:01:29;32;28;
63662;PMS5003;49815;51.618;0.336;2023-02-11T00:03:54;28;26;
63662;PMS5003;49815;51.618;0.336;2023-02-11T00:06:20;30;29;
63662;PMS5003;49815;51.618;0.336;2023-02-11T00:08:45;34;30;
63662;PMS5003;49815;51.618;0.336;2023-02-11T00:11:11;34;31;
63662;PMS5003;49815;51.618;0.336;2023-02-11T00:13:36;35;31;
63662;PMS5003;49815;51.618;0.336;2023-02-11T00:16:05;32;31;
63662;PMS5003;49815;51.618;0.336;2023-02-11T00:18:27;32;31;
63662;PMS5003;49815;51.618;0.336;2023-02-11T00:20:52;36;35;
63662;PMS5003;49815;51.618;0.336;2023-02-11T00:23:18;37;33;
63662;PMS5003;49815;51.618;0.336;2023-02-11T00:25:43;32;30;
63662;PMS5003;49815;51.618;0.336;2023-02-11T00:28:08;29;27;
63662;PMS5003;49815;51.618;0.336;2023-02-11T00:30:34;30;29;
63662;PMS5003;49815;51.618;0.336;2023-02-11T00:32:59;28;26;
63662;PMS5003;49815;51.618;0.336;2023-02-11T00:35:24;27;25;
63662;PMS5003;49815;51.618;0.336;2023-02-11T00:37:53;38;36;
63662;PMS5003;49815;51.618;0.336;2023-02-11T00:40:18;36;34;
63662;PMS5003;49815;51.618;0.336;2023-02-11T00:42:43;32;30;
63662;PMS5003;49815;51.618;0.336;2023-02-11T00:45:08;34;32;
63662;PMS5003;49815;51.618;0.336;2023-02-11T00:47:34;36;31;
63662;PMS5003;49815;51.618;0.336;2023-02-11T00:49:59;37;35;
63662;PMS5003;49815;51.618;0.336;2023-02-11T00:52:24;32;31;
63662;PMS5003;49815;51.618;0.336;2023-02-11T00:54:50;36;29;
63662;PMS5003;49815;51.618;0.336;2023-02-11T00:57:15;38;35;
63662;PMS5003;49815;51.618;0.336;2023-02-11T00:59:41;35;34;
63662;PMS5003;49815;51.618;0.336;2023-02-11T01:02:06;33;30;
63662;PMS5003;49815;51.618;0.336;2023-02-11T01:04:31;36;36;
63662;PMS5003;49815;51.618;0.336;2023-02-11T01:06:57;38;36;
63662;PMS5003;49815;51.618;0.336;2023-02-11T01:09:23;41;35;
63662;PMS5003;49815;51.618;0.336;2023-02-11T01:11:49;35;31;
63662;PMS5003;49815;51.618;0.336;2023-02-11T01:14:14;44;36;
63662;PMS5003;49815;51.618;0.336;2023-02-11T01:16:40;35;34;
63662;PMS5003;49815;51.618;0.336;2023-02-11T01:19:06;33;33;
63662;PMS5003;49815;51.618;0.336;2023-02-11T01:21:31;34;30;
63662;PMS5003;49815;51.618;0.336;2023-02-11T01:23:57;37;31;
63662;PMS5003;49815;51.618;0.336;2023-02-11T01:26:22;38;33;
63662;PMS5003;49815;51.618;0.336;2023-02-11T01:28:47;37;35;
63662;PMS5003;49815;51.618;0.336;2023-02-11T01:31:13;44;31;
63662;PMS5003;49815;51.618;0.336;2023-02-11T01:33:38;33;32;
63662;PMS5003;49815;51.618;0.336;2023-02-11T01:36:04;36;35;
63662;PMS5003;49815;51.618;0.336;2023-02-11T01:38:29;34;31;
63662;PMS5003;49815;51.618;0.336;2023-02-11T01:40:55;36;33;
63662;PMS5003;49815;51.618;0.336;2023-02-11T01:43:20;37;30;
63662;PMS5003;49815;51.618;0.336;2023-02-11T01:48:11;32;27;
63662;PMS5003;49815;51.618;0.336;2023-02-11T01:50:36;30;28;
63662;PMS5003;49815;51.618;0.336;2023-02-11T01:53:02;30;30;
63662;PMS5003;49815;51.618;0.336;2023-02-11T01:55:28;34;32;
63662;PMS5003;49815;51.618;0.336;2023-02-11T01:57:53;31;26;
63662;PMS5003;49815;51.618;0.336;2023-02-11T02:00:19;39;36;
63662;PMS5003;49815;51.618;0.336;2023-02-11T02:02:45;31;26;
63662;PMS5003;49815;51.618;0.336;2023-02-11T02:05:14;38;33;
63662;PMS5003;49815;51.618;0.336;2023-02-11T02:07:35;38;30;
63662;PMS5003;49815;51.618;0.336;2023-02-11T02:10:01;30;25;
63662;PMS5003;49815;51.618;0.336;2023-02-11T02:12:25;27;24;
63662;PMS5003;49815;51.618;0.336;2023-02-11T02:15:17;38;34;
63662;PMS5003;49815;51.618;0.336;2023-02-11T02:17:20;32;25;
63662;PMS5003;49815;51.618;0.336;2023-02-11T02:24:37;34;30;
63662;PMS5003;49815;51.618;0.336;2023-02-11T02:27:03;26;25;
63662;PMS5003;49815;51.618;0.336;2023-02-11T02:31:53;31;27;
63662;PMS5003;49815;51.618;0.336;2023-02-11T02:34:14;31;31;
63662;PMS5003;49815;51.618;0.336;2023-02-11T02:36:40;33;31;
63662;PMS5003;49815;51.618;0.336;2023-02-11T02:39:05;32;31;
63662;PMS5003;49815;51.618;0.336;2023-02-11T02:41:30;29;28;
63662;PMS5003;49815;51.618;0.336;2023-02-11T02:43:55;29;26;
63662;PMS5003;49815;51.618;0.336;2023-02-11T02:46:21;37;30;
63662;PMS5003;49815;51.618;0.336;2023-02-11T02:48:46;30;24;
63662;PMS5003;49815;51.618;0.336;2023-02-11T02:51:20;24;23;
63662;PMS5003;49815;51.618;0.336;2023-02-11T02:53:40;29;26;
63662;PMS5003;49815;51.618;0.336;2023-02-11T02:56:03;32;30;
63662;PMS5003;49815;51.618;0.336;2023-02-11T02:58:34;33;30;
63662;PMS5003;49815;51.618;0.336;2023-02-11T03:00:56;32;27;
63662;PMS5003;49815;51.618;0.336;2023-02-11T03:03:21;39;34;
63662;PMS5003;49815;51.618;0.336;2023-02-11T03:05:47;31;28;
63662;PMS5003;49815;51.618;0.336;2023-02-11T03:08:13;35;29;
63662;PMS5003;49815;51.618;0.336;2023-02-11T03:10:37;36;32;
63662;PMS5003;49815;51.618;0.336;2023-02-11T03:13:01;29;26;
63662;PMS5003;49815;51.618;0.336;2023-02-11T03:15:29;35;27;
63662;PMS5003;49815;51.618;0.336;2023-02-11T03:17:53;29;26;
63662;PMS5003;49815;51.618;0.336;2023-02-11T03:20:19;33;32;
63662;PMS5003;49815;51.618;0.336;2023-02-11T03:22:44;32;31;
63662;PMS5003;49815;51.618;0.336;2023-02-11T03:25:09;35;31;
63662;PMS5003;49815;51.618;0.336;2023-02-11T03:27:36;33;31;
63662;PMS5003;49815;51.618;0.336;2023-02-11T03:30:03;29;24;
63662;PMS5003;49815;51.618;0.336;2023-02-11T03:32:26;30;28;
63662;PMS5003;49815;51.618;0.336;2023-02-11T03:34:52;31;25;
63662;PMS5003;49815;51.618;0.336;2023-02-11T03:37:17;31;25;
63662;PMS5003;49815;51.618;0.336;2023-02-11T03:39:42;34;32;
63662;PMS5003;49815;51.618;0.336;2023-02-11T03:42:07;31;30;
63662;PMS5003;49815;51.618;0.336;2023-02-11T03:44:33;31;29;
63662;PMS5003;49815;51.618;0.336;2023-02-11T03:46:58;29;25;
63662;PMS5003;49815;51.618;0.336;2023-02-11T03:49:23;35;33;
63662;PMS5003;49815;51.618;0.336;2023-02-11T03:51:50;34;33;
63662;PMS5003;49815;51.618;0.336;2023-02-11T03:54:15;35;27;
63662;PMS5003;49815;51.618;0.336;2023-02-11T03:56:41;30;29;
63662;PMS5003;49815;51.618;0.336;2023-02-11T03:59:06;30;27;
63662;PMS5003;49815;51.618;0.336;2023-02-11T04:01:31;33;31;
63662;PMS5003;49815;51.618;0.336;2023-02-11T04:03:57;38;32;
63662;PMS5003;49815;51.618;0.336;2023-02-11T04:06:22;32;24;
63662;PMS5003;49815;51.618;0.336;2023-02-11T04:08:47;30;25;
63662;PMS5003;49815;51.618;0.336;2023-02-11T04:11:13;23;22;
63662;PMS5003;49815;51.618;0.336;2023-02-11T04:13:38;31;30;
63662;PMS5003;49815;51.618;0.336;2023-02-11T04:16:04;32;29;
63662;PMS5003;49815;51.618;0.336;2023-02-11T04:18:29;37;32;
63662;PMS5003;49815;51.618;0.336;2023-02-11T04:20:54;36;30;
63662;PMS5003;49815;51.618;0.336;2023-02-11T04:23:19;36;33;
63662;PMS5003;49815;51.618;0.336;2023-02-11T04:25:45;42;39;
63662;PMS5003;49815;51.618;0.336;2023-02-11T04:28:11;38;30;
63662;PMS5003;49815;51.618;0.336;2023-02-11T04:30:36;36;34;
63662;PMS5003;49815;51.618;0.336;2023-02-11T04:33:01;40;34;
63662;PMS5003;49815;51.618;0.336;2023-02-11T04:35:27;36;31;
63662;PMS5003;49815;51.618;0.336;2023-02-11T04:37:52;36;34;
63662;PMS5003;49815;51.618;0.336;2023-02-11T04:40:18;45;38;
63662;PMS5003;49815;51.618;0.336;2023-02-11T04:42:44;35;31;
63662;PMS5003;49815;51.618;0.336;2023-02-11T04:45:08;35;30;
63662;PMS5003;49815;51.618;0.336;2023-02-11T04:47:34;38;36;
63662;PMS5003;49815;51.618;0.336;2023-02-11T04:49:59;34;27;
63662;PMS5003;49815;51.618;0.336;2023-02-11T04:52:25;36;34;
63662;PMS5003;49815;51.618;0.336;2023-02-11T04:54:51;33;31;
63662;PMS5003;49815;51.618;0.336;2023-02-11T04:57:16;37;33;
63662;PMS5003;49815;51.618;0.336;2023-02-11T04:59:42;38;35;
63662;PMS5003;49815;51.618;0.336;2023-02-11T05:02:07;45;35;
63662;PMS5003;49815;51.618;0.336;2023-02-11T05:04:33;40;35;
63662;PMS5003;49815;51.618;0.336;2023-02-11T05:06:58;35;29;
63662;PMS5003;49815;51.618;0.336;2023-02-11T05:09:24;26;26;
63662;PMS5003;49815;51.618;0.336;2023-02-11T05:11:50;35;32;
63662;PMS5003;49815;51.618;0.336;2023-02-11T05:14:15;34;33;
63662;PMS5003;49815;51.618;0.336;2023-02-11T05:16:40;37;33;
63662;PMS5003;49815;51.618;0.336;2023-02-11T05:19:05;40;36;
63662;PMS5003;49815;51.618;0.336;2023-02-11T05:21:30;29;27;
63662;PMS5003;49815;51.618;0.336;2023-02-11T05:23:56;36;33;
63662;PMS5003;49815;51.618;0.336;2023-02-11T05:26:22;42;32;
63662;PMS5003;49815;51.618;0.336;2023-02-11T05:28:47;28;27;
63662;PMS5003;49815;51.618;0.336;2023-02-11T05:31:13;36;27;
63662;PMS5003;49815;51.618;0.336;2023-02-11T05:33:38;34;30;
63662;PMS5003;49815;51.618;0.336;2023-02-11T05:36:04;41;29;
63662;PMS5003;49815;51.618;0.336;2023-02-11T05:38:29;37;30;
63662;PMS5003;49815;51.618;0.336;2023-02-11T05:40:54;32;25;
63662;PMS5003;49815;51.618;0.336;2023-02-11T05:43:20;44;33;
63662;PMS5003;49815;51.618;0.336;2023-02-11T05:45:45;33;30;
63662;PMS5003;49815;51.618;0.336;2023-02-11T05:48:10;33;29;
63662;PMS5003;49815;51.618;0.336;2023-02-11T05:50:36;35;28;
63662;PMS5003;49815;51.618;0.336;2023-02-11T05:53:01;33;33;
63662;PMS5003;49815;51.618;0.336;2023-02-11T05:55:27;32;31;
63662;PMS5003;49815;51.618;0.336;2023-02-11T05:57:53;35;33;
63662;PMS5003;49815;51.618;0.336;2023-02-11T06:00:18;35;30;
63662;PMS5003;49815;51.618;0.336;2023-02-11T06:02:43;36;32;
63662;PMS5003;49815;51.618;0.336;2023-02-11T06:05:08;29;26;
63662;PMS5003;49815;51.618;0.336;2023-02-11T06:07:33;29;26;
63662;PMS5003;49815;51.618;0.336;2023-02-11T06:09:59;36;34;
63662;PMS5003;49815;51.618;0.336;2023-02-11T06:12:24;40;32;
63662;PMS5003;49815;51.618;0.336;2023-02-11T06:14:50;29;26;
63662;PMS5003;49815;51.618;0.336;2023-02-11T06:17:16;30;28;
63662;PMS5003;49815;51.618;0.336;2023-02-11T06:19:41;40;36;
63662;PMS5003;49815;51.618;0.336;2023-02-11T06:22:07;33;28;
63662;PMS5003;49815;51.618;0.336;2023-02-11T06:24:32;32;27;
63662;PMS5003;49815;51.618;0.336;2023-02-11T06:26:57;27;25;
63662;PMS5003;49815;51.618;0.336;2023-02-11T06:29:22;32;28;
63662;PMS5003;49815;51.618;0.336;2023-02-11T06:31:48;35;32;
63662;PMS5003;49815;51.618;0.336;2023-02-11T06:34:13;32;28;
63662;PMS5003;49815;51.618;0.336;2023-02-11T06:36:38;29;29;
63662;PMS5003;49815;51.618;0.336;2023-02-11T06:39:04;35;27;
63662;PMS5003;49815;51.618;0.336;2023-02-11T06:41:30;29;25;
63662;PMS5003;49815;51.618;0.336;2023-02-11T06:43:55;34;24;
63662;PMS5003;49815;51.618;0.336;2023-02-11T06:46:21;34;33;
63662;PMS5003;49815;51.618;0.336;2023-02-11T06:48:46;30;28;
63662;PMS5003;49815;51.618;0.336;2023-02-11T06:51:12;30;26;
63662;PMS5003;49815;51.618;0.336;2023-02-11T06:53:41;33;26;
63662;PMS5003;49815;51.618;0.336;2023-02-11T06:56:04;38;34;
63662;PMS5003;49815;51.618;0.336;2023-02-11T06:58:29;26;25;
63662;PMS5003;49815;51.618;0.336;2023-02-11T07:00:55;34;32;
63662;PMS5003;49815;51.618;0.336;2023-02-11T07:03:20;36;30;
63662;PMS5003;49815;51.618;0.336;2023-02-11T07:05:45;30;30;
63662;PMS5003;49815;51.618;0.336;2023-02-11T07:08:11;31;28;
63662;PMS5003;49815;51.618;0.336;2023-02-11T07:10:36;29;27;
63662;PMS5003;49815;51.618;0.336;2023-02-11T07:13:01;35;29;
63662;PMS5003;49815;51.618;0.336;2023-02-11T07:15:27;29;28;
63662;PMS5003;49815;51.618;0.336;2023-02-11T07:17:52;30;23;
63662;PMS5003;49815;51.618;0.336;2023-02-11T07:20:18;23;22;
63662;PMS5003;49815;51.618;0.336;2023-02-11T07:22:43;31;28;
63662;PMS5003;49815;51.618;0.336;2023-02-11T07:25:09;32;28;
63662;PMS5003;49815;51.618;0.336;2023-02-11T07:27:34;26;22;
63662;PMS5003;49815;51.618;0.336;2023-02-11T07:29:59;25;25;
63662;PMS5003;49815;51.618;0.336;2023-02-11T07:32:25;21;21;
63662;PMS5003;49815;51.618;0.336;2023-02-11T07:34:51;30;28;
63662;PMS5003;49815;51.618;0.336;2023-02-11T07:37:17;29;27;
63662;PMS5003;49815;51.618;0.336;2023-02-11T07:39:42;36;31;
63662;PMS5003;49815;51.618;0.336;2023-02-11T07:42:07;25;24;
63662;PMS5003;49815;51.618;0.336;2023-02-11T07:44:32;21;20;
63662;PMS5003;49815;51.618;0.336;2023-02-11T07:46:57;32;21;
63662;PMS5003;49815;51.618;0.336;2023-02-11T07:49:23;29;22;
63662;PMS5003;49815;51.618;0.336;2023-02-11T07:51:48;23;19;
63662;PMS5003;49815;51.618;0.336;2023-02-11T07:54:14;23;22;
63662;PMS5003;49815;51.618;0.336;2023-02-11T07:56:38;30;29;
63662;PMS5003;49815;51.618;0.336;2023-02-11T07:59:04;31;26;
63662;PMS5003;49815;51.618;0.336;2023-02-11T08:01:30;27;22;
63662;PMS5003;49815;51.618;0.336;2023-02-11T08:03:55;31;25;
63662;PMS5003;49815;51.618;0.336;2023-02-11T08:06:20;21;21;
63662;PMS5003;49815;51.618;0.336;2023-02-11T08:08:45;20;20;
63662;PMS5003;49815;51.618;0.336;2023-02-11T08:11:11;23;22;
63662;PMS5003;49815;51.618;0.336;2023-02-11T08:13:36;22;21;
63662;PMS5003;49815;51.618;0.336;2023-02-11T08:16:03;24;20;
63662;PMS5003;49815;51.618;0.336;2023-02-11T08:18:27;27;26;
63662;PMS5003;49815;51.618;0.336;2023-02-11T08:20:53;28;27;
63662;PMS5003;49815;51.618;0.336;2023-02-11T08:23:18;21;19;
63662;PMS5003;49815;51.618;0.336;2023-02-11T08:25:44;18;16;
63662;PMS5003;49815;51.618;0.336;2023-02-11T08:28:09;21;19;
63662;PMS5003;49815;51.618;0.336;2023-02-11T08:30:35;24;24;
63662;PMS5003;49815;51.618;0.336;2023-02-11T08:33:00;22;19;
63662;PMS5003;49815;51.618;0.336;2023-02-11T08:35:25;25;24;
63662;PMS5003;49815;51.618;0.336;2023-02-11T08:37:50;19;16;
63662;PMS5003;49815;51.618;0.336;2023-02-11T08:40:16;23;19;
63662;PMS5003;49815;51.618;0.336;2023-02-11T08:42:41;22;17;
63662;PMS5003;49815;51.618;0.336;2023-02-11T08:45:07;21;18;
63662;PMS5003;49815;51.618;0.336;2023-02-11T08:47:33;25;21;
63662;PMS5003;49815;51.618;0.336;2023-02-11T08:49:58;25;19;
63662;PMS5003;49815;51.618;0.336;2023-02-11T08:52:23;19;18;
63662;PMS5003;49815;51.618;0.336;2023-02-11T08:54:48;20;17;
63662;PMS5003;49815;51.618;0.336;2023-02-11T08:57:14;21;21;
63662;PMS5003;49815;51.618;0.336;2023-02-11T08:59:39;20;17;
63662;PMS5003;49815;51.618;0.336;2023-02-11T09:02:05;15;15;
63662;PMS5003;49815;51.618;0.336;2023-02-11T09:04:30;18;14;
63662;PMS5003;49815;51.618;0.336;2023-02-11T09:06:56;16;14;
63662;PMS5003;49815;51.618;0.336;2023-02-11T09:09:21;15;14;
63662;PMS5003;49815;51.618;0.336;2023-02-11T09:11:47;18;16;
63662;PMS5003;49815;51.618;0.336;2023-02-11T09:14:15;22;19;
63662;PMS5003;49815;51.618;0.336;2023-02-11T09:16:37;16;12;
63662;PMS5003;49815;51.618;0.336;2023-02-11T09:19:03;18;16;
63662;PMS5003;49815;51.618;0.336;2023-02-11T09:21:29;13;13;
63662;PMS5003;49815;51.618;0.336;2023-02-11T09:23:54;16;13;
63662;PMS5003;49815;51.618;0.336;2023-02-11T09:26:20;15;13;
63662;PMS5003;49815;51.618;0.336;2023-02-11T09:28:45;16;16;
63662;PMS5003;49815;51.618;0.336;2023-02-11T09:31:11;18;17;
63662;PMS5003;49815;51.618;0.336;2023-02-11T09:33:36;18;14;
63662;PMS5003;49815;51.618;0.336;2023-02-11T09:36:01;20;16;
63662;PMS5003;49815;51.618;0.336;2023-02-11T09:38:26;16;16;
63662;PMS5003;49815;51.618;0.336;2023-02-11T09:40:52;14;14;
63662;PMS5003;49815;51.618;0.336;2023-02-11T09:43:18;19;15;
63662;PMS5003;49815;51.618;0.336;2023-02-11T09:45:43;16;15;
63662;PMS5003;49815;51.618;0.336;2023-02-11T09:48:09;18;16;
63662;PMS5003;49815;51.618;0.336;2023-02-11T09:50:34;16;15;
63662;PMS5003;49815;51.618;0.336;2023-02-11T09:53:01;20;18;
63662;PMS5003;49815;51.618;0.336;2023-02-11T09:55:26;14;14;
63662;PMS5003;49815;51.618;0.336;2023-02-11T09:57:50;20;15;
63662;PMS5003;49815;51.618;0.336;2023-02-11T10:00:17;17;12;
63662;PMS5003;49815;51.618;0.336;2023-02-11T10:02:42;11;11;
63662;PMS5003;49815;51.618;0.336;2023-02-11T10:05:11;13;12;
63662;PMS5003;49815;51.618;0.336;2023-02-11T10:07:34;16;12;
63662;PMS5003;49815;51.618;0.336;2023-02-11T10:10:01;15;13;
63662;PMS5003;49815;51.618;0.336;2023-02-11T10:12:30;39;36;
63662;PMS5003;49815;51.618;0.336;2023-02-11T10:14:54;64;60;
63662;PMS5003;49815;51.618;0.336;2023-02-11T10:17:16;35;34;
63662;PMS5003;49815;51.618;0.336;2023-02-11T10:19:44;21;19;
63662;PMS5003;49815;51.618;0.336;2023-02-11T10:22:07;19;14;
63662;PMS5003;49815;51.618;0.336;2023-02-11T10:24:30;20;17;
63662;PMS5003;49815;51.618;0.336;2023-02-11T10:26:56;19;19;
63662;PMS5003;49815;51.618;0.336;2023-02-11T10:29:27;24;22;
63662;PMS5003;49815;51.618;0.336;2023-02-11T10:31:47;26;25;
63662;PMS5003;49815;51.618;0.336;2023-02-11T10:34:13;17;15;
63662;PMS5003;49815;51.618;0.336;2023-02-11T10:36:40;17;17;
63662;PMS5003;49815;51.618;0.336;2023-02-11T10:39:15;16;15;
63662;PMS5003;49815;51.618;0.336;2023-02-11T10:41:29;13;13;
63662;PMS5003;49815;51.618;0.336;2023-02-11T10:43:54;12;10;
63662;PMS5003;49815;51.618;0.336;2023-02-11T10:46:21;11;9;
63662;PMS5003;49815;51.618;0.336;2023-02-11T10:48:45;10;10;
63662;PMS5003;49815;51.618;0.336;2023-02-11T10:51:15;18;13;
63662;PMS5003;49815;51.618;0.336;2023-02-11T10:53:36;10;8;
63662;PMS5003;49815;51.618;0.336;2023-02-11T10:56:02;10;9;
63662;PMS5003;49815;51.618;0.336;2023-02-11T10:58:27;13;9;
63662;PMS5003;49815;51.618;0.336;2023-02-11T11:00:52;7;7;
63662;PMS5003;49815;51.618;0.336;2023-02-11T11:03:17;9;9;
63662;PMS5003;49815;51.618;0.336;2023-02-11T11:05:45;8;8;
63662;PMS5003;49815;51.618;0.336;2023-02-11T11:08:08;15;9;
63662;PMS5003;49815;51.618;0.336;2023-02-11T11:10:35;11;8;
63662;PMS5003;49815;51.618;0.336;2023-02-11T11:12:59;8;7;
63662;PMS5003;49815;51.618;0.336;2023-02-11T11:15:25;9;8;
63662;PMS5003;49815;51.618;0.336;2023-02-11T11:17:50;10;9;
63662;PMS5003;49815;51.618;0.336;2023-02-11T11:20:19;12;9;
63662;PMS5003;49815;51.618;0.336;2023-02-11T11:22:40;11;7;
63662;PMS5003;49815;51.618;0.336;2023-02-11T11:25:05;10;10;
63662;PMS5003;49815;51.618;0.336;2023-02-11T11:27:31;9;9;
63662;PMS5003;49815;51.618;0.336;2023-02-11T11:29:56;8;8;
63662;PMS5003;49815;51.618;0.336;2023-02-11T11:32:22;11;9;
63662;PMS5003;49815;51.618;0.336;2023-02-11T11:34:48;8;7;
63662;PMS5003;49815;51.618;0.336;2023-02-11T11:37:12;7;7;
63662;PMS5003;49815;51.618;0.336;2023-02-11T11:39:37;10;9;
63662;PMS5003;49815;51.618;0.336;2023-02-11T11:42:04;7;7;
63662;PMS5003;49815;51.618;0.336;2023-02-11T11:44:29;11;8;
63662;PMS5003;49815;51.618;0.336;2023-02-11T11:49:21;10;8;
63662;PMS5003;49815;51.618;0.336;2023-02-11T11:51:46;8;8;
63662;PMS5003;49815;51.618;0.336;2023-02-11T11:54:11;8;7;
63662;PMS5003;49815;51.618;0.336;2023-02-11T11:56:36;8;8;
63662;PMS5003;49815;51.618;0.336;2023-02-11T11:59:01;10;8;
63662;PMS5003;49815;51.618;0.336;2023-02-11T12:01:28;7;7;
63662;PMS5003;49815;51.618;0.336;2023-02-11T12:06:20;9;9;
63662;PMS5003;49815;51.618;0.336;2023-02-11T12:08:43;6;6;
63662;PMS5003;49815;51.618;0.336;2023-02-11T12:11:09;10;9;
63662;PMS5003;49815;51.618;0.336;2023-02-11T12:13:38;11;9;
63662;PMS5003;49815;51.618;0.336;2023-02-11T12:16:01;8;6;
63662;PMS5003;49815;51.618;0.336;2023-02-11T12:18:28;7;7;
63662;PMS5003;49815;51.618;0.336;2023-02-11T12:20:54;10;8;
63662;PMS5003;49815;51.618;0.336;2023-02-11T12:23:20;6;6;
63662;PMS5003;49815;51.618;0.336;2023-02-11T12:25:41;9;8;
63662;PMS5003;49815;51.618;0.336;2023-02-11T12:28:09;7;7;
63662;PMS5003;49815;51.618;0.336;2023-02-11T12:30:37;8;8;
63662;PMS5003;49815;51.618;0.336;2023-02-11T12:32:57;9;8;
63662;PMS5003;49815;51.618;0.336;2023-02-11T12:35:26;11;10;
63662;PMS5003;49815;51.618;0.336;2023-02-11T12:37:51;8;8;
63662;PMS5003;49815;51.618;0.336;2023-02-11T12:40:14;9;8;
63662;PMS5003;49815;51.618;0.336;2023-02-11T12:42:45;10;10;
63662;PMS5003;49815;51.618;0.336;2023-02-11T12:45:09;10;10;
63662;PMS5003;49815;51.618;0.336;2023-02-11T12:47:29;9;9;
63662;PMS5003;49815;51.618;0.336;2023-02-11T12:49:59;8;7;
63662;PMS5003;49815;51.618;0.336;2023-02-11T12:52:22;8;8;
63662;PMS5003;49815;51.618;0.336;2023-02-11T12:54:45;8;8;
63662;PMS5003;49815;51.618;0.336;2023-02-11T12:57:12;10;7;
63662;PMS5003;49815;51.618;0.336;2023-02-11T12:59:38;9;7;
63662;PMS5003;49815;51.618;0.336;2023-02-11T13:02:02;8;8;
63662;PMS5003;49815;51.618;0.336;2023-02-11T13:04:27;7;7;
63662;PMS5003;49815;51.618;0.336;2023-02-11T13:06:52;11;6;
63662;PMS5003;49815;51.618;0.336;2023-02-11T13:09:17;10;7;
63662;PMS5003;49815;51.618;0.336;2023-02-11T13:11:43;9;6;
63662;PMS5003;49815;51.618;0.336;2023-02-11T13:14:08;5;5;
63662;PMS5003;49815;51.618;0.336;2023-02-11T13:16:34;6;6;
63662;PMS5003;49815;51.618;0.336;2023-02-11T13:19:00;6;4;
63662;PMS5003;49815;51.618;0.336;2023-02-11T13:21:30;6;6;
63662;PMS5003;49815;51.618;0.336;2023-02-11T13:23:49;8;6;
63662;PMS5003;49815;51.618;0.336;2023-02-11T13:26:15;6;6;
63662;PMS5003;49815;51.618;0.336;2023-02-11T13:28:40;7;6;
63662;PMS5003;49815;51.618;0.336;2023-02-11T13:31:05;5;5;
63662;PMS5003;49815;51.618;0.336;2023-02-11T13:33:31;6;6;
63662;PMS5003;49815;51.618;0.336;2023-02-11T13:38:21;4;4;
63662;PMS5003;49815;51.618;0.336;2023-02-11T13:40:56;6;6;
63662;PMS5003;49815;51.618;0.336;2023-02-11T13:45:37;4;4;
63662;PMS5003;49815;51.618;0.336;2023-02-11T13:48:03;6;6;
63662;PMS5003;49815;51.618;0.336;2023-02-11T13:50:27;5;5;
63662;PMS5003;49815;51.618;0.336;2023-02-11T13:52:56;6;6;
63662;PMS5003;49815;51.618;0.336;2023-02-11T13:55:19;8;8;
63662;PMS5003;49815;51.618;0.336;2023-02-11T13:57:44;12;10;
63662;PMS5003;49815;51.618;0.336;2023-02-11T14:02:35;9;8;
63662;PMS5003;49815;51.618;0.336;2023-02-11T14:05:01;12;12;
63662;PMS5003;49815;51.618;0.336;2023-02-11T14:07:26;9;6;
63662;PMS5003;49815;51.618;0.336;2023-02-11T14:09:51;14;14;
63662;PMS5003;49815;51.618;0.336;2023-02-11T14:19:34;22;20;
63662;PMS5003;49815;51.618;0.336;2023-02-11T14:22:00;24;24;
63662;PMS5003;49815;51.618;0.336;2023-02-11T14:26:50;20;18;
63662;PMS5003;49815;51.618;0.336;2023-02-11T14:29:16;23;23;
63662;PMS5003;49815;51.618;0.336;2023-02-11T14:31:41;30;30;
63662;PMS5003;49815;51.618;0.336;2023-02-11T14:36:37;20;19;
63662;PMS5003;49815;51.618;0.336;2023-02-11T14:38:59;27;27;
63662;PMS5003;49815;51.618;0.336;2023-02-11T14:41:23;25;25;
63662;PMS5003;49815;51.618;0.336;2023-02-11T14:43:48;22;22;
63662;PMS5003;49815;51.618;0.336;2023-02-11T14:46:14;24;24;
63662;PMS5003;49815;51.618;0.336;2023-02-11T14:48:41;20;20;
63662;PMS5003;49815;51.618;0.336;2023-02-11T14:51:05;26;26;
63662;PMS5003;49815;51.618;0.336;2023-02-11T14:53:31;28;28;
63662;PMS5003;49815;51.618;0.336;2023-02-11T14:55:55;39;39;
63662;PMS5003;49815;51.618;0.336;2023-02-11T14:58:21;36;33;
63662;PMS5003;49815;51.618;0.336;2023-02-11T15:00:53;23;23;
63662;PMS5003;49815;51.618;0.336;2023-02-11T15:05:37;18;18;
63662;PMS5003;49815;51.618;0.336;2023-02-11T15:08:03;10;10;
63662;PMS5003;49815;51.618;0.336;2023-02-11T15:10:29;46;42;
63662;PMS5003;49815;51.618;0.336;2023-02-11T15:12:53;36;34;
63662;PMS5003;49815;51.618;0.336;2023-02-11T15:15:18;30;30;
63662;PMS5003;49815;51.618;0.336;2023-02-11T15:17:44;27;27;
63662;PMS5003;49815;51.618;0.336;2023-02-11T15:20:14;42;41;
63662;PMS5003;49815;51.618;0.336;2023-02-11T15:22:35;47;47;
63662;PMS5003;49815;51.618;0.336;2023-02-11T15:25:06;38;37;
63662;PMS5003;49815;51.618;0.336;2023-02-11T15:27:26;40;40;
63662;PMS5003;49815;51.618;0.336;2023-02-11T15:29:52;35;35;
63662;PMS5003;49815;51.618;0.336;2023-02-11T15:32:18;40;40;
63662;PMS5003;49815;51.618;0.336;2023-02-11T15:34:43;40;40;
63662;PMS5003;49815;51.618;0.336;2023-02-11T15:37:09;37;35;
63662;PMS5003;49815;51.618;0.336;2023-02-11T15:39:35;44;43;
63662;PMS5003;49815;51.618;0.336;2023-02-11T15:44:25;51;51;
63662;PMS5003;49815;51.618;0.336;2023-02-11T15:46:49;54;51;
63662;PMS5003;49815;51.618;0.336;2023-02-11T15:49:15;52;49;
63662;PMS5003;49815;51.618;0.336;2023-02-11T15:51:40;57;54;
63662;PMS5003;49815;51.618;0.336;2023-02-11T15:54:06;39;39;
63662;PMS5003;49815;51.618;0.336;2023-02-11T15:56:34;55;55;
63662;PMS5003;49815;51.618;0.336;2023-02-11T15:58:56;59;56;
63662;PMS5003;49815;51.618;0.336;2023-02-11T16:03:48;54;52;
63662;PMS5003;49815;51.618;0.336;2023-02-11T16:06:17;71;71;
63662;PMS5003;49815;51.618;0.336;2023-02-11T16:08:38;21;19;
63662;PMS5003;49815;51.618;0.336;2023-02-11T16:11:04;35;34;
63662;PMS5003;49815;51.618;0.336;2023-02-11T16:13:30;58;57;
63662;PMS5003;49815;51.618;0.336;2023-02-11T16:15:55;35;35;
63662;PMS5003;49815;51.618;0.336;2023-02-11T16:18:24;46;45;
63662;PMS5003;49815;51.618;0.336;2023-02-11T16:20:46;34;33;
63662;PMS5003;49815;51.618;0.336;2023-02-11T16:23:13;90;88;
63662;PMS5003;49815;51.618;0.336;2023-02-11T16:25:36;34;34;
63662;PMS5003;49815;51.618;0.336;2023-02-11T16:28:03;42;40;
63662;PMS5003;49815;51.618;0.336;2023-02-11T16:30:28;40;39;
63662;PMS5003;49815;51.618;0.336;2023-02-11T16:32:53;32;32;
63662;PMS5003;49815;51.618;0.336;2023-02-11T16:35:19;32;32;
63662;PMS5003;49815;51.618;0.336;2023-02-11T16:37:45;23;20;
63662;PMS5003;49815;51.618;0.336;2023-02-11T16:40:10;25;23;
63662;PMS5003;49815;51.618;0.336;2023-02-11T16:42:35;26;25;
63662;PMS5003;49815;51.618;0.336;2023-02-11T16:45:01;28;24;
63662;PMS5003;49815;51.618;0.336;2023-02-11T16:47:27;24;24;
63662;PMS5003;49815;51.618;0.336;2023-02-11T16:49:52;30;30;
63662;PMS5003;49815;51.618;0.336;2023-02-11T16:52:18;40;40;